createdAt,value
2018-07-05T00:01:27.423Z,3.07
2018-07-05T00:04:07.088Z,3.17
2018-07-05T00:06:46.640Z,2.90
2018-07-05T00:09:26.280Z,2.90
2018-07-05T00:11:59.976Z,3.57
2018-07-05T00:14:39.628Z,3.07
2018-07-05T00:17:19.196Z,3.23
2018-07-05T00:19:58.885Z,3.37
2018-07-05T00:22:38.357Z,3.57
2018-07-05T00:25:17.908Z,3.20
2018-07-05T00:27:57.684Z,3.43
2018-07-05T00:30:37.266Z,3.73
2018-07-05T00:33:16.819Z,2.93
2018-07-05T00:35:56.614Z,3.50
2018-07-05T00:38:36.133Z,3.30
2018-07-05T00:41:15.612Z,3.57
2018-07-05T00:43:55.283Z,3.63
2018-07-05T00:46:34.932Z,3.57
2018-07-05T00:49:14.633Z,3.43
2018-07-05T00:51:54.090Z,3.50
2018-07-05T00:54:33.546Z,3.20
2018-07-05T00:57:13.040Z,4.07
2018-07-05T00:59:52.694Z,3.73
2018-07-05T01:02:32.341Z,4.00
2018-07-05T01:05:11.776Z,3.83
2018-07-05T01:07:51.340Z,3.90
2018-07-05T01:10:30.861Z,3.80
2018-07-05T01:13:10.538Z,3.53
2018-07-05T01:15:50.096Z,2.93
2018-07-05T01:18:29.658Z,3.50
2018-07-05T01:21:09.192Z,3.00
2018-07-05T01:23:48.956Z,3.87
2018-07-05T01:26:28.524Z,3.83
2018-07-05T01:29:08.195Z,3.73
2018-07-05T01:31:47.853Z,3.43
2018-07-05T01:34:27.361Z,3.80
2018-07-05T01:37:07.056Z,3.50
2018-07-05T01:39:46.683Z,4.30
2018-07-05T01:42:26.201Z,3.27
2018-07-05T01:45:05.816Z,3.77
2018-07-05T01:47:45.344Z,3.33
2018-07-05T01:50:25.034Z,3.20
2018-07-05T01:53:04.777Z,2.93
2018-07-05T01:55:44.445Z,3.30
2018-07-05T01:58:24.005Z,3.17
2018-07-05T02:01:03.736Z,2.70
2018-07-05T02:03:43.470Z,2.70
2018-07-05T02:06:23.153Z,2.30
2018-07-05T02:09:02.873Z,3.40
2018-07-05T02:11:42.641Z,3.07
2018-07-05T02:14:22.185Z,3.37
2018-07-05T02:17:01.834Z,3.20
2018-07-05T02:19:41.334Z,3.67
2018-07-05T02:22:20.938Z,3.30
2018-07-05T02:25:00.715Z,3.13
2018-07-05T02:27:40.265Z,3.23
2018-07-05T02:30:20.057Z,2.90
2018-07-05T02:32:59.684Z,2.90
2018-07-05T02:35:39.268Z,3.20
2018-07-05T02:38:24.109Z,3.03
2018-07-05T02:41:04.599Z,2.97
2018-07-05T02:43:44.380Z,2.77
2018-07-05T02:46:24.028Z,2.93
2018-07-05T02:49:03.692Z,2.80
2018-07-05T02:51:43.245Z,3.00
2018-07-05T02:54:22.716Z,2.60
2018-07-05T02:57:02.269Z,2.70
2018-07-05T02:59:41.852Z,2.60
2018-07-05T04:24:30.740Z,3.80
2018-07-05T04:27:10.320Z,2.83
2018-07-05T04:29:50.109Z,2.90
2018-07-05T04:32:29.727Z,3.90
2018-07-05T04:35:09.348Z,3.40
2018-07-05T04:37:49.077Z,3.67
2018-07-05T04:40:28.712Z,3.73
2018-07-05T04:43:08.423Z,3.87
2018-07-05T04:45:47.989Z,4.10
2018-07-05T04:48:27.684Z,3.67
2018-07-05T04:51:07.348Z,3.63
2018-07-05T04:53:46.799Z,5.30
2018-07-05T04:56:26.585Z,4.63
2018-07-05T04:59:06.220Z,4.70
2018-07-05T05:01:45.904Z,4.90
2018-07-05T05:04:25.592Z,4.13
2018-07-05T05:07:05.405Z,4.10
2018-07-05T05:09:44.913Z,4.10
2018-07-05T05:12:24.577Z,4.17
2018-07-05T05:15:04.393Z,3.70
2018-07-05T05:17:44.025Z,3.73
2018-07-05T05:20:23.736Z,3.40
2018-07-05T05:23:03.311Z,2.70
2018-07-05T05:25:43.093Z,2.90
2018-07-05T05:28:16.723Z,3.57
2018-07-05T05:30:56.367Z,3.37
2018-07-05T05:33:36.010Z,2.40
2018-07-05T05:36:15.662Z,2.30
2018-07-05T05:38:55.293Z,3.07
2018-07-05T05:41:34.925Z,2.70
2018-07-05T05:44:14.603Z,2.30
2018-07-05T05:46:54.132Z,2.63
2018-07-05T05:49:33.824Z,2.37
2018-07-05T05:52:13.439Z,2.40
2018-07-05T05:54:53.080Z,2.40
2018-07-05T05:57:32.795Z,2.73
2018-07-05T06:00:06.848Z,2.60
2018-07-05T06:02:46.394Z,2.40
2018-07-05T06:05:26.037Z,2.80
2018-07-05T06:08:05.720Z,3.00
2018-07-05T06:10:45.220Z,3.10
2018-07-05T06:13:24.880Z,2.80
2018-07-05T06:16:04.436Z,2.77
2018-07-05T06:18:45.133Z,2.40
2018-07-05T06:21:24.632Z,2.37
2018-07-05T06:24:04.279Z,2.27
2018-07-05T06:26:37.827Z,2.40
2018-07-05T06:29:17.630Z,3.00
2018-07-05T06:31:57.213Z,2.60
2018-07-05T06:34:36.773Z,2.70
2018-07-05T06:37:16.433Z,2.77
2018-07-05T06:39:56.194Z,3.23
2018-07-05T06:42:35.895Z,3.27
2018-07-05T06:45:15.589Z,2.87
2018-07-05T06:47:55.222Z,2.20
2018-07-05T06:50:34.801Z,2.77
2018-07-05T06:53:14.458Z,3.10
2018-07-05T06:55:54.172Z,2.80
2018-07-05T06:58:27.756Z,2.83
2018-07-05T07:01:07.364Z,3.03
2018-07-05T07:03:41.031Z,2.70
2018-07-05T07:06:20.636Z,2.40
2018-07-05T07:09:00.096Z,2.90
2018-07-05T07:11:39.799Z,1.70
2018-07-05T07:14:19.421Z,2.63
2018-07-05T07:16:59.121Z,2.40
2018-07-05T07:19:38.803Z,1.80
2018-07-05T07:22:18.344Z,2.47
2018-07-05T07:24:58.018Z,2.10
2018-07-05T07:27:37.679Z,2.10
2018-07-05T07:30:17.444Z,1.63
2018-07-05T07:32:56.999Z,2.00
2018-07-05T07:35:36.568Z,2.90
2018-07-05T07:38:16.101Z,1.93
2018-07-05T07:40:55.721Z,2.10
2018-07-05T07:43:22.916Z,2.13
2018-07-05T07:45:50.104Z,2.40
2018-07-05T07:48:17.272Z,2.03
2018-07-05T07:50:44.432Z,2.30
2018-07-05T07:53:11.612Z,2.73
2018-07-05T07:55:38.996Z,2.00
2018-07-05T07:58:06.192Z,2.17
2018-07-05T08:00:33.750Z,2.07
2018-07-05T08:03:00.927Z,2.10
2018-07-05T08:05:28.109Z,1.97
2018-07-05T08:07:55.305Z,1.20
2018-07-05T08:10:22.460Z,1.40
2018-07-05T08:12:49.620Z,1.43
2018-07-05T08:15:16.784Z,1.40
2018-07-05T08:17:43.973Z,1.67
2018-07-05T08:20:11.145Z,1.40
2018-07-05T08:22:38.324Z,1.27
2018-07-05T08:25:05.493Z,1.80
2018-07-05T08:27:32.664Z,1.50
2018-07-05T08:29:59.831Z,1.43
2018-07-05T08:32:26.992Z,1.40
2018-07-05T08:34:54.152Z,1.40
2018-07-05T08:37:21.335Z,1.30
2018-07-05T08:39:48.522Z,1.43
2018-07-05T08:42:15.693Z,1.47
2018-07-05T08:44:42.915Z,1.90
2018-07-05T08:47:10.060Z,1.20
2018-07-05T08:49:37.357Z,1.70
2018-07-05T08:52:04.564Z,1.40
2018-07-05T08:54:31.739Z,1.53
2018-07-05T08:56:58.892Z,1.30
2018-07-05T08:59:26.051Z,1.47
2018-07-05T09:01:53.243Z,1.90
2018-07-05T09:04:20.413Z,1.57
2018-07-05T09:09:21.068Z,1.90
2018-07-05T09:11:48.268Z,1.50
2018-07-05T09:14:15.412Z,1.60
2018-07-05T09:16:42.602Z,1.57
2018-07-05T09:19:09.769Z,1.30
2018-07-05T09:21:36.941Z,1.60
2018-07-05T09:24:04.100Z,1.67
2018-07-05T09:26:31.540Z,1.40
2018-07-05T09:28:58.711Z,1.40
2018-07-05T09:31:25.872Z,1.37
2018-07-05T09:33:53.036Z,1.40
2018-07-05T09:36:20.208Z,1.50
2018-07-05T09:38:47.488Z,1.20
2018-07-05T09:41:14.661Z,1.50
2018-07-05T09:43:41.832Z,1.47
2018-07-05T09:46:09.194Z,1.50
2018-07-05T09:48:36.384Z,1.00
2018-07-05T09:51:03.564Z,1.70
2018-07-05T09:53:30.788Z,1.47
2018-07-05T09:55:57.993Z,1.70
2018-07-05T09:58:25.152Z,1.43
2018-07-05T10:00:52.956Z,1.43
2018-07-05T10:03:21.755Z,1.60
2018-07-05T10:05:49.197Z,1.67
2018-07-05T10:08:17.504Z,1.20
2018-07-05T10:10:44.706Z,1.40
2018-07-05T10:13:12.317Z,1.37
2018-07-05T10:15:39.473Z,1.60
2018-07-05T10:18:06.713Z,1.60
2018-07-05T10:20:34.185Z,1.53
2018-07-05T10:23:01.346Z,1.93
2018-07-05T10:25:28.518Z,1.30
2018-07-05T10:27:55.676Z,1.63
2018-07-05T10:30:35.036Z,1.57
2018-07-05T10:33:08.601Z,1.50
2018-07-05T10:35:35.776Z,1.50
2018-07-05T10:38:03.904Z,1.30
2018-07-05T10:40:44.224Z,1.70
2018-07-05T10:43:18.051Z,1.30
2018-07-05T10:45:57.588Z,1.90
2018-07-05T10:48:37.360Z,1.70
2018-07-05T10:51:17.132Z,1.77
2018-07-05T10:53:50.806Z,1.30
2018-07-05T10:56:30.421Z,1.33
2018-07-05T10:59:09.880Z,1.77
2018-07-05T11:01:49.436Z,1.70
2018-07-05T11:04:29.144Z,1.50
2018-07-05T11:07:08.660Z,1.70
2018-07-05T11:09:48.596Z,1.63
2018-07-05T11:12:28.252Z,1.23
2018-07-05T11:15:07.949Z,2.20
2018-07-05T11:17:47.588Z,1.70
2018-07-05T11:20:27.336Z,2.30
2018-07-05T11:23:07.000Z,2.53
2018-07-05T11:25:46.661Z,1.90
2018-07-05T11:28:26.156Z,2.10
2018-07-05T11:31:05.822Z,2.07
2018-07-05T11:33:45.463Z,2.43
2018-07-05T11:36:25.059Z,2.47
2018-07-05T11:39:05.661Z,2.20
2018-07-05T11:41:45.557Z,2.70
2018-07-05T11:44:25.261Z,2.30
2018-07-05T11:46:58.814Z,2.10
2018-07-05T11:49:38.523Z,2.80
2018-07-05T11:52:18.251Z,2.70
2018-07-05T11:54:57.744Z,2.80
2018-07-05T11:57:37.425Z,2.67
2018-07-05T12:00:17.051Z,2.77
2018-07-05T12:02:56.635Z,2.30
2018-07-05T12:05:36.329Z,2.00
2018-07-05T12:08:15.788Z,1.97
2018-07-05T12:10:55.224Z,2.20
2018-07-05T12:13:34.925Z,2.60
2018-07-05T12:16:14.589Z,2.80
2018-07-05T12:18:54.164Z,2.87
2018-07-05T12:21:33.655Z,2.80
2018-07-05T12:24:13.186Z,2.30
2018-07-05T12:26:52.645Z,2.13
2018-07-05T13:15:30.168Z,1.97
2018-07-05T13:18:09.832Z,2.20
2018-07-05T13:20:43.371Z,2.00
2018-07-05T13:23:22.893Z,1.93
2018-07-05T13:26:02.399Z,2.50
2018-07-05T13:28:41.848Z,2.50
2018-07-05T13:31:21.639Z,2.10
2018-07-05T13:34:01.353Z,2.40
2018-07-05T13:36:41.079Z,1.80
2018-07-05T13:39:20.692Z,2.07
2018-07-05T13:42:00.545Z,2.07
2018-07-05T13:44:34.020Z,2.40
2018-07-05T13:47:13.673Z,2.00
2018-07-05T13:49:53.216Z,2.10
2018-07-05T13:52:32.857Z,2.20
2018-07-05T13:55:12.349Z,2.20
2018-07-05T13:57:51.908Z,2.20
2018-07-05T14:00:31.473Z,2.10
2018-07-05T14:03:11.000Z,2.17
2018-07-05T14:05:50.508Z,2.00
2018-07-05T14:08:30.142Z,2.00
2018-07-05T14:11:09.791Z,2.13
2018-07-05T14:13:49.340Z,2.53
2018-07-05T14:16:29.072Z,2.80
2018-07-05T14:19:08.700Z,2.27
2018-07-05T14:21:48.236Z,2.40
2018-07-05T14:24:27.816Z,2.07
2018-07-05T14:27:07.385Z,2.30
2018-07-05T14:29:47.177Z,2.10
2018-07-05T14:32:26.685Z,2.13
2018-07-05T14:35:06.208Z,2.27
2018-07-05T14:37:45.766Z,2.53
2018-07-05T14:40:25.272Z,2.43
2018-07-05T14:42:58.623Z,2.33
2018-07-05T14:45:38.027Z,2.10
2018-07-05T14:48:17.637Z,2.57
2018-07-05T14:50:57.312Z,2.77
2018-07-05T14:53:36.942Z,2.50
2018-07-05T14:56:16.473Z,2.17
2018-07-05T14:58:55.957Z,2.23
2018-07-05T15:01:35.490Z,2.67
2018-07-05T15:04:15.036Z,2.33
2018-07-05T15:06:54.681Z,2.40
2018-07-05T15:09:34.264Z,2.17
2018-07-05T15:12:13.870Z,2.30
2018-07-05T15:14:53.394Z,2.23
2018-07-05T15:17:33.004Z,2.80
2018-07-05T15:20:12.652Z,2.20
2018-07-05T15:22:52.257Z,2.20
2018-07-05T15:25:31.708Z,2.20
2018-07-05T15:28:05.228Z,2.73
2018-07-05T15:30:44.732Z,2.47
2018-07-05T15:33:24.168Z,3.00
2018-07-05T15:35:57.747Z,2.70
2018-07-05T15:38:37.435Z,2.50
2018-07-05T15:41:17.001Z,2.53
2018-07-05T15:43:56.548Z,2.50
2018-07-05T15:46:36.395Z,2.10
2018-07-05T15:49:16.099Z,2.30
2018-07-05T15:51:55.712Z,2.00
2018-07-05T15:54:35.267Z,2.30
2018-07-05T15:57:14.936Z,2.53
2018-07-05T15:59:54.549Z,1.97
2018-07-05T16:02:34.086Z,2.30
2018-07-05T16:05:13.623Z,2.03
2018-07-05T16:07:53.388Z,2.47
2018-07-05T16:10:33.025Z,2.10
2018-07-05T16:13:12.640Z,2.30
2018-07-05T17:38:01.488Z,1.80
2018-07-05T17:40:41.044Z,2.03
2018-07-05T17:43:20.640Z,1.80
2018-07-05T17:46:00.256Z,2.13
2018-07-05T17:48:39.900Z,1.90
2018-07-05T17:51:19.597Z,1.97
2018-07-05T17:53:53.163Z,1.90
2018-07-05T17:56:32.842Z,1.90
2018-07-05T17:59:12.434Z,1.77
2018-07-05T18:01:51.957Z,2.07
2018-07-05T18:04:31.748Z,1.70
2018-07-05T18:07:11.414Z,1.60
2018-07-05T18:09:51.073Z,1.80
2018-07-05T18:12:30.652Z,1.80
2018-07-05T18:15:10.312Z,2.10
2018-07-05T18:17:49.864Z,1.90
2018-07-05T18:20:29.443Z,1.73
2018-07-05T18:23:09.020Z,2.47
2018-07-05T18:25:49.036Z,1.67
2018-07-05T18:28:28.841Z,1.93
2018-07-05T18:31:02.344Z,1.90
2018-07-05T18:33:41.969Z,1.73
2018-07-05T18:36:21.571Z,1.40
2018-07-05T18:39:01.008Z,1.40
2018-07-05T18:41:40.614Z,1.47
2018-07-05T18:44:20.205Z,1.10
2018-07-05T18:46:53.716Z,1.20
2018-07-05T18:49:33.551Z,1.43
2018-07-05T18:52:13.103Z,1.20
2018-07-05T18:54:52.903Z,1.33
2018-07-05T18:57:32.761Z,1.50
2018-07-05T19:00:12.565Z,1.10
2018-07-05T19:02:52.129Z,1.53
2018-07-05T19:05:31.747Z,1.40
2018-07-05T19:08:11.372Z,1.30
2018-07-05T19:10:51.113Z,1.23
2018-07-05T19:13:31.064Z,0.93
2018-07-05T19:16:10.949Z,1.30
2018-07-05T19:18:50.628Z,1.10
2018-07-05T19:21:30.117Z,1.07
2018-07-05T19:24:09.738Z,1.10
2018-07-05T19:26:49.375Z,1.00
2018-07-05T19:29:29.078Z,1.10
2018-07-05T19:32:08.764Z,1.20
2018-07-05T19:34:48.472Z,1.33
2018-07-05T19:37:27.947Z,1.27
2018-07-05T19:40:08.070Z,1.83
2018-07-05T19:42:47.802Z,1.10
2018-07-05T19:45:27.487Z,1.10
2018-07-05T19:48:06.877Z,1.40
2018-07-05T19:50:46.384Z,1.20
2018-07-05T19:53:26.080Z,1.13
2018-07-05T19:56:05.742Z,1.00
2018-07-05T19:58:45.225Z,1.20
2018-07-05T20:01:24.961Z,1.20
2018-07-05T20:04:04.742Z,1.13
2018-07-05T20:06:44.853Z,1.00
2018-07-05T20:09:24.396Z,1.30
2018-07-05T20:12:07.462Z,1.00
2018-07-05T20:14:47.332Z,0.90
2018-07-05T20:17:26.988Z,1.40
2018-07-05T20:20:06.526Z,1.10
2018-07-05T20:22:46.900Z,1.20
2018-07-05T20:25:26.654Z,1.17
2018-07-05T20:28:06.420Z,1.30
2018-07-05T20:30:46.051Z,1.20
2018-07-05T20:33:25.592Z,1.10
2018-07-05T20:36:05.289Z,1.27
2018-07-05T20:38:44.762Z,1.40
2018-07-05T20:41:24.404Z,1.10
2018-07-05T20:44:04.337Z,1.40
2018-07-05T20:46:44.008Z,1.13
2018-07-05T20:49:17.847Z,1.20
2018-07-05T20:51:51.538Z,1.10
2018-07-05T20:54:31.211Z,1.00
2018-07-05T20:57:10.880Z,1.07
2018-07-05T20:59:50.575Z,1.10
2018-07-05T21:02:30.691Z,1.37
2018-07-05T21:05:10.315Z,1.10
2018-07-05T21:07:50.024Z,1.13
2018-07-05T21:10:29.608Z,1.13
2018-07-05T21:13:09.206Z,1.30
2018-07-05T21:15:48.872Z,1.03
2018-07-05T21:18:28.593Z,1.00
2018-07-05T21:21:08.207Z,1.00
2018-07-05T21:23:47.575Z,1.20
2018-07-05T21:26:27.469Z,1.10
2018-07-05T21:29:07.131Z,1.00
2018-07-05T21:31:46.755Z,1.00
2018-07-05T21:34:26.306Z,1.10
2018-07-05T21:37:05.928Z,1.20
2018-07-05T21:39:45.532Z,1.30
2018-07-05T21:42:25.207Z,1.20
2018-07-05T21:44:58.765Z,1.60
2018-07-05T21:47:38.572Z,1.60
2018-07-05T21:50:18.156Z,1.00
2018-07-05T21:52:57.909Z,1.30
2018-07-05T21:55:37.642Z,1.23
2018-07-05T21:58:17.265Z,1.20
2018-07-05T22:00:56.940Z,0.90
2018-07-05T22:03:36.485Z,1.00
2018-07-05T22:06:16.115Z,1.20
2018-07-05T22:08:55.632Z,0.97
2018-07-05T22:11:35.352Z,0.90
2018-07-05T22:14:09.007Z,1.00
2018-07-05T22:16:54.176Z,1.20
2018-07-05T22:19:39.401Z,0.90
2018-07-05T22:22:24.592Z,1.03
2018-07-05T22:25:18.464Z,0.90
2018-07-05T22:28:03.800Z,0.80
2018-07-05T22:30:49.000Z,1.00
2018-07-05T22:33:28.636Z,1.00
2018-07-05T22:36:08.297Z,1.03
2018-07-05T22:38:47.970Z,0.90
2018-07-05T22:41:28.085Z,1.13
2018-07-05T22:44:07.800Z,0.90
2018-07-05T22:46:47.464Z,1.10
2018-07-05T22:49:27.020Z,1.20
2018-07-05T22:52:06.600Z,1.40
2018-07-05T22:54:46.043Z,1.07
2018-07-05T22:57:25.731Z,1.43
2018-07-05T23:00:05.364Z,1.53
2018-07-05T23:02:45.028Z,1.50
2018-07-05T23:05:18.692Z,1.40
2018-07-05T23:07:58.407Z,1.80
2018-07-05T23:10:37.953Z,1.20
2018-07-05T23:13:17.484Z,1.63
2018-07-05T23:15:57.064Z,1.70
2018-07-05T23:18:36.777Z,1.43
2018-07-05T23:21:16.327Z,1.20
2018-07-05T23:23:56.117Z,1.30
2018-07-05T23:26:35.803Z,1.50
2018-07-05T23:29:15.487Z,1.50
2018-07-05T23:31:55.185Z,1.70
2018-07-05T23:34:34.871Z,1.47
2018-07-05T23:37:14.532Z,1.43
2018-07-05T23:39:54.149Z,1.60
2018-07-05T23:42:33.932Z,1.77
2018-07-05T23:45:13.913Z,1.93
2018-07-05T23:47:53.324Z,1.57
2018-07-05T23:50:32.784Z,2.33
2018-07-05T23:53:12.395Z,1.63
2018-07-05T23:55:51.916Z,1.90
2018-07-05T23:58:31.568Z,1.70
